Terminal Aerodrome Forecast
Issued by NWS

Home | Current Version | Previous Version | Text Only | Print | Product List | Glossary On
Versions: 1 2 3 4 5 6 7 8 9 10 11 12 13
000
FTUS46 KMFR 161100 RRA
TAFLMT
TAF
KLMT 161143Z 1612/1712 VRB03KT P6SM FEW050 SCT200
     FM162100 32010KT P6SM SCT050 SCT100
     FM170400 31004KT P6SM FEW050 SCT100=

USA.gov is the U.S. government's official web portal to all federal, state and local government web resources and services.